createdAt,value
2019-02-03T05:58:52.087Z,26.42
2019-02-03T06:09:36.254Z,25.88
2019-02-03T06:12:38.457Z,27.42
2019-02-03T06:18:14.462Z,36.55
2019-02-03T06:25:17.495Z,34.67
2019-02-03T06:47:54.368Z,30.48
2019-02-03T06:51:12.476Z,39.53
2019-02-03T06:57:58.054Z,39.90
2019-02-03T07:00:29.747Z,43.13
2019-02-03T07:03:44.085Z,32.23
2019-02-03T07:08:50.689Z,44.35
2019-02-03T07:11:22.151Z,41.60
2019-02-03T07:13:52.376Z,45.05
2019-02-03T07:16:24.051Z,44.33
2019-02-03T07:18:54.311Z,50.67
2019-02-03T07:21:24.514Z,47.43
2019-02-03T07:23:56.666Z,42.75
2019-02-03T07:26:36.810Z,46.90
2019-02-03T07:29:09.134Z,42.67
2019-02-03T07:31:42.642Z,36.13
2019-02-03T07:34:13.989Z,43.98
2019-02-03T07:36:44.292Z,43.73
2019-02-03T07:39:14.507Z,46.92
2019-02-03T07:41:48.707Z,42.23
2019-02-03T07:44:19.873Z,47.23
2019-02-03T07:46:52.219Z,56.30
2019-02-03T07:49:26.391Z,47.70
2019-02-03T07:51:59.240Z,56.55
2019-02-03T07:54:29.453Z,52.48
2019-02-03T07:56:59.601Z,61.23
2019-02-03T07:59:30.517Z,63.73
2019-02-03T08:02:02.658Z,55.35
2019-02-03T08:04:32.870Z,65.03
2019-02-03T08:07:03.043Z,59.48
2019-02-03T08:09:34.521Z,56.83
2019-02-03T08:12:04.669Z,63.78
2019-02-03T08:14:34.856Z,55.80
2019-02-03T08:17:06.114Z,57.65
2019-02-03T08:19:36.286Z,58.08
2019-02-03T08:22:06.715Z,44.08
2019-02-03T08:24:36.890Z,74.75
2019-02-03T08:27:07.065Z,55.90
2019-02-03T08:29:41.415Z,67.32
2019-02-03T08:32:12.331Z,57.27
2019-02-03T08:34:43.105Z,59.15
2019-02-03T08:37:15.409Z,37.85
2019-02-03T08:39:45.577Z,53.35
2019-02-03T08:42:15.805Z,57.20
2019-02-03T08:44:46.002Z,63.42
2019-02-03T08:47:17.873Z,46.80
2019-02-03T08:49:48.131Z,41.18
2019-02-03T08:52:18.315Z,48.70
2019-02-03T08:54:57.982Z,50.00
2019-02-03T08:57:22.164Z,47.85
2019-02-03T08:59:52.763Z,60.05
2019-02-03T09:02:23.657Z,43.73
2019-02-03T09:04:53.841Z,48.52
2019-02-03T09:07:24.236Z,62.03
2019-02-03T09:09:54.412Z,48.92
2019-02-03T09:12:25.030Z,56.00
2019-02-03T09:14:55.133Z,62.00
2019-02-03T09:17:30.699Z,68.47
2019-02-03T09:20:00.858Z,69.12
2019-02-03T09:22:31.124Z,62.00
2019-02-03T09:25:01.471Z,70.62
2019-02-03T09:27:31.684Z,64.82
2019-02-03T09:30:01.881Z,62.13
2019-02-03T09:32:32.076Z,73.00
2019-02-03T09:35:02.360Z,47.60
2019-02-03T09:37:33.990Z,61.68
2019-02-03T09:40:07.978Z,60.30
2019-02-03T09:42:39.712Z,61.33
2019-02-03T09:45:13.724Z,61.70
2019-02-03T09:47:43.948Z,72.72
2019-02-03T09:50:16.819Z,66.90
2019-02-03T09:52:48.193Z,62.38
2019-02-03T09:55:20.337Z,53.48
2019-02-03T09:57:51.695Z,53.52
2019-02-03T10:00:30.626Z,52.60
2019-02-03T10:03:05.360Z,52.78
2019-02-03T10:05:42.561Z,56.87
2019-02-03T10:08:18.402Z,57.50
2019-02-03T10:10:48.693Z,54.43
2019-02-03T10:13:19.900Z,51.50
2019-02-03T10:15:50.349Z,47.27
2019-02-03T10:18:20.540Z,49.30
2019-02-03T10:20:50.755Z,57.03
2019-02-03T10:23:20.943Z,47.15
2019-02-03T10:25:55.248Z,45.63
2019-02-03T10:28:24.105Z,47.27
2019-02-03T10:30:54.706Z,44.67
2019-02-03T10:33:24.957Z,44.83
2019-02-03T10:35:55.209Z,49.63
2019-02-03T10:38:25.594Z,47.93
2019-02-03T10:41:00.282Z,41.28
2019-02-03T10:43:30.508Z,42.55
2019-02-03T10:46:04.478Z,34.00
2019-02-03T10:48:34.692Z,38.70
2019-02-03T10:51:05.465Z,39.58
2019-02-03T10:53:36.090Z,40.08
2019-02-03T10:56:06.784Z,39.03
2019-02-03T10:58:37.498Z,42.17
2019-02-03T11:01:08.031Z,42.65
2019-02-03T11:03:38.400Z,38.33
2019-02-03T11:06:08.654Z,41.65
2019-02-03T11:08:38.854Z,36.30
2019-02-03T11:11:09.696Z,40.63
2019-02-03T11:13:40.283Z,37.90
2019-02-03T11:16:10.827Z,31.90
2019-02-03T11:18:41.006Z,37.17
2019-02-03T11:21:11.191Z,36.48
2019-02-03T11:23:41.603Z,33.00
2019-02-03T11:26:12.140Z,40.52
2019-02-03T11:28:42.559Z,31.90
2019-02-03T11:31:12.819Z,34.13
2019-02-03T11:35:18.140Z,33.35
2019-02-03T11:53:53.024Z,27.67
2019-02-03T12:30:03.589Z,27.27
2019-02-03T12:32:38.073Z,26.35
2019-02-03T12:36:06.443Z,25.95
2019-02-03T12:47:44.311Z,27.20
2019-02-03T12:52:26.161Z,20.32
2019-02-03T13:25:17.924Z,28.57
2019-02-03T13:27:46.309Z,28.57
2019-02-03T13:30:26.326Z,28.70
2019-02-03T13:32:59.426Z,28.70
2019-02-03T13:35:30.212Z,27.95
2019-02-03T13:38:00.825Z,28.10
2019-02-03T13:40:31.499Z,32.93
2019-02-03T13:43:03.653Z,27.35
2019-02-03T13:45:36.847Z,30.72
2019-02-03T13:48:17.699Z,32.05
2019-02-03T13:51:11.668Z,31.25
2019-02-03T13:53:52.464Z,32.88
2019-02-03T13:56:23.798Z,33.20
2019-02-03T13:58:59.317Z,37.28
2019-02-03T14:01:33.485Z,34.92
2019-02-03T14:04:05.057Z,40.20
2019-02-03T14:06:37.285Z,35.10
2019-02-03T14:09:10.383Z,34.75
2019-02-03T14:11:45.526Z,32.08
2019-02-03T14:14:16.619Z,32.17
2019-02-03T14:16:48.755Z,34.10
2019-02-03T14:19:22.901Z,36.77
2019-02-03T14:21:53.705Z,34.00
2019-02-03T14:24:33.729Z,30.92
2019-02-03T14:27:05.808Z,35.70
2019-02-03T14:29:43.190Z,34.33
2019-02-03T14:32:14.560Z,33.42
2019-02-03T14:34:49.729Z,33.65
2019-02-03T14:37:21.035Z,39.88
2019-02-03T14:39:51.194Z,35.73
2019-02-03T14:42:21.978Z,37.93
2019-02-03T14:44:53.167Z,40.30
2019-02-03T14:47:27.724Z,35.03
2019-02-03T14:49:59.393Z,35.08
2019-02-03T14:52:35.132Z,35.63
2019-02-03T14:55:09.690Z,43.73
2019-02-03T14:57:41.513Z,38.28
2019-02-03T15:00:23.174Z,34.78
2019-02-03T15:03:04.348Z,42.55
2019-02-03T15:24:28.845Z,30.55
2019-02-03T15:27:37.698Z,31.82
2019-02-03T15:34:02.486Z,32.25
2019-02-03T15:37:29.019Z,37.08
2019-02-03T15:41:20.676Z,28.98
2019-02-03T16:38:53.731Z,32.17
2019-02-03T16:42:11.741Z,31.23
2019-02-03T16:48:30.741Z,30.77
2019-02-03T16:51:05.312Z,32.58
2019-02-03T16:53:44.185Z,41.68
2019-02-03T16:56:21.749Z,34.55
2019-02-03T16:58:58.976Z,35.90
2019-02-03T17:01:40.259Z,37.40
2019-02-03T17:04:07.606Z,36.25
2019-02-03T17:06:59.148Z,36.03
2019-02-03T17:10:05.566Z,34.70
2019-02-03T17:14:20.216Z,39.48
2019-02-03T17:17:45.475Z,29.35
2019-02-03T17:21:03.943Z,34.00
2019-02-03T17:24:48.293Z,35.38
2019-02-03T17:31:06.962Z,33.18
2019-02-03T17:37:32.364Z,36.17
2019-02-03T17:40:06.481Z,33.18
2019-02-03T20:20:54.315Z,14.45
2019-02-03T20:31:41.424Z,16.05
2019-02-03T20:35:13.278Z,11.70
2019-02-03T20:38:05.180Z,15.53
2019-02-03T20:41:01.835Z,12.33
2019-02-03T20:44:01.870Z,14.85
2019-02-03T20:46:45.339Z,13.62
2019-02-03T20:49:20.131Z,14.38
2019-02-03T20:52:18.140Z,14.98
2019-02-03T20:55:16.299Z,11.08
2019-02-03T20:58:10.622Z,13.05
2019-02-03T21:01:22.084Z,14.03
2019-02-03T21:03:57.835Z,10.23
2019-02-03T21:07:05.360Z,12.50
2019-02-03T21:09:57.747Z,16.07
2019-02-03T21:12:56.993Z,14.75
2019-02-03T21:16:08.226Z,16.37
2019-02-03T21:30:01.647Z,19.50
2019-02-03T21:33:16.242Z,12.40
2019-02-03T21:39:08.732Z,12.95
2019-02-03T21:41:41.972Z,16.80
2019-02-03T21:44:14.899Z,20.15
2019-02-03T21:47:08.038Z,12.37
2019-02-03T22:15:12.289Z,16.00
